Time;durP1;ratioP1;P1;durP2;ratioP2;P2;SDS_P1;SDS_P2;PMS_P1;PMS_P2;Temp;Humidity;BMP_temperature;BMP_pressure;BME280_temperature;BME280_humidity;BME280_pressure;Samples;Min_cycle;Max_cycle;Signal;HPM_P1;HPM_P2
2021/06/29 00:30:17;;;;;;;9.77;6.70;;;;;;;18.72;100.00;97510.53;5033590;28;20566;-80
2021/06/29 00:32:43;;;;;;;15.80;6.57;;;;;;;18.74;100.00;97511.22;5015675;28;20022;-79
2021/06/29 00:35:10;;;;;;;10.95;6.38;;;;;;;18.73;100.00;97517.66;5015591;28;20029;-80
2021/06/29 00:37:36;;;;;;;14.55;7.30;;;;;;;18.68;100.00;97505.53;5015196;28;20030;-79
2021/06/29 00:40:04;;;;;;;11.10;6.20;;;;;;;18.66;100.00;97516.53;5015330;28;20025;-80
2021/06/29 00:42:29;;;;;;;11.18;7.15;;;;;;;18.65;100.00;97512.09;5031499;28;20040;-79
2021/06/29 00:44:55;;;;;;;8.65;6.70;;;;;;;18.60;100.00;97502.72;5015352;28;20025;-79
2021/06/29 00:47:21;;;;;;;11.43;7.20;;;;;;;18.60;100.00;97505.41;5015340;28;20041;-79
2021/06/29 00:49:47;;;;;;;17.45;7.15;;;;;;;18.59;100.00;97507.28;5031780;28;20554;-79
2021/06/29 00:52:14;;;;;;;17.98;6.97;;;;;;;18.61;100.00;97513.38;5015292;28;20026;-80
2021/06/29 00:54:41;;;;;;;9.02;6.28;;;;;;;18.55;100.00;97499.59;5031602;28;20029;-79
2021/06/29 00:57:08;;;;;;;10.90;6.47;;;;;;;18.53;100.00;97502.44;5031756;28;20044;-80
2021/06/29 00:59:34;;;;;;;10.30;6.25;;;;;;;18.51;100.00;97493.59;5015181;28;20103;-79
2021/06/29 01:02:00;;;;;;;13.10;7.00;;;;;;;18.45;100.00;97499.56;5015016;28;20060;-79
2021/06/29 01:04:25;;;;;;;8.27;6.72;;;;;;;18.39;100.00;97508.28;5014308;28;20116;-80
2021/06/29 01:06:52;;;;;;;8.20;6.30;;;;;;;18.39;100.00;97502.88;5031494;28;20578;-79
2021/06/29 01:09:19;;;;;;;13.65;6.90;;;;;;;18.35;100.00;97505.00;5031216;28;20106;-79
2021/06/29 01:11:45;;;;;;;11.35;6.90;;;;;;;18.30;100.00;97507.25;5032355;28;20392;-79
2021/06/29 01:14:12;;;;;;;8.50;6.82;;;;;;;18.26;100.00;97492.31;5014612;28;20155;-80
2021/06/29 01:16:39;;;;;;;13.18;6.45;;;;;;;18.25;100.00;97496.03;5014696;28;20065;-81
2021/06/29 01:19:04;;;;;;;9.63;6.38;;;;;;;18.18;100.00;97491.34;5031205;28;20024;-80
2021/06/29 01:21:41;;;;;;;13.07;7.18;;;;;;;18.15;100.00;97492.44;5014343;28;20034;-80
2021/06/29 01:24:16;;;;;;;11.95;7.10;;;;;;;18.17;100.00;97495.91;5031299;28;20033;-80
2021/06/29 01:26:48;;;;;;;14.13;7.47;;;;;;;18.09;100.00;97486.78;5014519;28;20036;-80
2021/06/29 01:29:14;;;;;;;8.38;6.95;;;;;;;18.09;100.00;97489.50;5031445;28;20026;-79
2021/06/29 01:31:40;;;;;;;11.82;6.20;;;;;;;18.11;100.00;97492.91;5031050;28;20489;-80
2021/06/29 01:34:05;;;;;;;7.88;6.68;;;;;;;18.07;100.00;97496.88;5014550;28;20052;-79
2021/06/29 01:36:38;;;;;;;11.98;7.18;;;;;;;18.06;100.00;97497.88;5030793;28;20052;-79
2021/06/29 01:39:09;;;;;;;14.95;7.15;;;;;;;17.93;100.00;97497.31;5031359;28;20057;-79
2021/06/29 01:41:35;;;;;;;13.98;7.38;;;;;;;17.95;100.00;97495.31;5014410;28;20037;-80
2021/06/29 01:44:43;;;;;;;17.95;7.13;;;;;;;17.92;100.00;97495.59;5031056;28;20424;-80
2021/06/29 01:46:52;;;;;;;15.52;7.45;;;;;;;17.89;100.00;97499.44;5028733;28;20401;-79
2021/06/29 01:49:23;;;;;;;9.02;6.93;;;;;;;17.85;100.00;97501.56;5015364;28;20025;-79
2021/06/29 01:51:49;;;;;;;11.80;7.07;;;;;;;17.84;100.00;97488.19;5030612;28;20045;-79
2021/06/29 01:54:14;;;;;;;8.55;6.55;;;;;;;17.87;100.00;97491.44;5030709;28;20033;-79
2021/06/29 01:56:40;;;;;;;14.55;6.80;;;;;;;17.91;100.00;97494.72;5030718;28;20037;-79
2021/06/29 01:59:12;;;;;;;14.00;7.05;;;;;;;17.93;100.00;97500.03;5014535;28;20025;-80
2021/06/29 02:01:38;;;;;;;9.85;6.53;;;;;;;17.91;100.00;97489.31;5014222;28;20094;-78
2021/06/29 02:04:04;;;;;;;11.07;6.97;;;;;;;17.93;100.00;97491.91;5030847;28;20504;-80
2021/06/29 02:06:30;;;;;;;9.82;7.65;;;;;;;17.97;100.00;97496.88;5013797;28;20025;-79
2021/06/29 02:08:56;;;;;;;8.48;6.78;;;;;;;17.92;100.00;97490.19;5013931;28;20041;-80
2021/06/29 02:11:21;;;;;;;13.93;7.53;;;;;;;17.89;100.00;97496.75;5030386;28;20386;-79
2021/06/29 02:13:47;;;;;;;14.95;7.70;;;;;;;17.92;100.00;97495.59;5013554;28;20037;-80
2021/06/29 02:16:12;;;;;;;12.90;7.90;;;;;;;17.86;100.00;97491.59;5012965;28;20033;-79
2021/06/29 02:18:38;;;;;;;16.60;8.02;;;;;;;17.84;100.00;97488.19;5013509;28;20033;-80
2021/06/29 02:21:05;;;;;;;14.52;7.65;;;;;;;17.80;100.00;97487.63;5030205;28;20040;-79
2021/06/29 02:23:31;;;;;;;10.95;6.72;;;;;;;17.83;100.00;97491.91;5013841;28;20032;-80
2021/06/29 02:25:57;;;;;;;17.70;7.65;;;;;;;17.83;100.00;97500.00;5013381;28;20021;-79
2021/06/29 02:28:22;;;;;;;19.13;7.38;;;;;;;17.74;100.00;97495.44;5029955;28;20033;-80
2021/06/29 02:30:48;;;;;;;15.85;7.28;;;;;;;17.75;100.00;97505.25;5013375;28;20034;-81
2021/06/29 02:33:14;;;;;;;9.68;6.93;;;;;;;17.75;100.00;97498.00;5013524;28;20028;-81
2021/06/29 02:35:40;;;;;;;14.40;6.75;;;;;;;17.72;100.00;97495.56;5013291;28;20041;-81
2021/06/29 02:38:06;;;;;;;12.85;6.95;;;;;;;17.65;100.00;97494.44;5013428;28;20168;-81
2021/06/29 02:40:32;;;;;;;13.30;7.38;;;;;;;17.72;100.00;97506.41;5013468;28;20029;-81
2021/06/29 02:42:59;;;;;;;16.80;6.70;;;;;;;17.71;100.00;97504.72;5013042;28;20084;-80
2021/06/29 02:45:25;;;;;;;13.98;7.15;;;;;;;17.73;100.00;97491.88;5013186;28;20425;-80
2021/06/29 02:47:52;;;;;;;15.07;7.07;;;;;;;17.73;100.00;97496.44;5013309;28;20507;-80
2021/06/29 02:50:18;;;;;;;16.50;7.00;;;;;;;17.72;100.00;97495.56;5030011;28;20514;-81
2021/06/29 02:52:44;;;;;;;17.88;7.78;;;;;;;17.73;100.00;97500.00;5013071;28;20040;-80
2021/06/29 02:55:13;;;;;;;13.10;6.82;;;;;;;17.73;100.00;97500.00;5029820;28;20075;-80
2021/06/29 02:57:40;;;;;;;13.85;7.50;;;;;;;17.71;100.00;97499.28;5012928;28;20025;-80
2021/06/29 03:00:08;;;;;;;13.35;7.70;;;;;;;17.60;100.00;97496.69;5013171;28;20477;-80
2021/06/29 03:02:34;;;;;;;14.10;8.27;;;;;;;17.54;100.00;97502.63;5013049;28;20033;-80
2021/06/29 03:05:00;;;;;;;21.70;10.68;;;;;;;17.56;100.00;97502.53;5029364;28;20480;-80
2021/06/29 03:07:25;;;;;;;35.42;11.70;;;;;;;17.55;100.00;97512.50;5013203;28;20113;-79
2021/06/29 03:09:51;;;;;;;25.38;11.88;;;;;;;17.58;100.00;97512.22;5013321;28;20033;-81
2021/06/29 03:12:16;;;;;;;47.38;15.38;;;;;;;17.59;100.00;97513.94;5012978;28;20519;-81
2021/06/29 03:14:42;;;;;;;41.63;15.23;;;;;;;17.48;100.00;97514.00;5013105;28;20029;-81
2021/06/29 03:17:08;;;;;;;32.03;12.65;;;;;;;17.55;100.00;97512.50;5013011;28;20028;-80
2021/06/29 03:19:35;;;;;;;29.75;13.45;;;;;;;17.55;100.00;97509.78;5012957;28;20136;-81
2021/06/29 03:22:01;;;;;;;30.38;12.70;;;;;;;17.58;100.00;97506.81;5029501;28;20480;-81
2021/06/29 03:24:28;;;;;;;22.67;11.48;;;;;;;17.59;100.00;97511.25;5029617;28;20116;-82
2021/06/29 03:26:53;;;;;;;19.52;8.27;;;;;;;17.59;100.00;97507.66;5014207;28;20033;-81
2021/06/29 03:29:19;;;;;;;15.23;8.25;;;;;;;17.51;100.00;97505.63;5016723;28;20038;-81
2021/06/29 03:31:45;;;;;;;19.95;7.82;;;;;;;17.55;100.00;97511.63;5017171;28;20451;-81
2021/06/29 03:34:10;;;;;;;14.13;8.18;;;;;;;17.56;100.00;97514.22;5016788;28;20536;-81
2021/06/29 03:36:36;;;;;;;21.15;8.85;;;;;;;17.46;100.00;97516.00;5033251;28;20104;-81
2021/06/29 03:39:04;;;;;;;15.38;9.10;;;;;;;17.44;100.00;97520.72;5016174;28;20036;-81
2021/06/29 03:41:29;;;;;;;18.25;9.38;;;;;;;17.53;100.00;97522.56;5016249;28;20036;-81
2021/06/29 03:43:55;;;;;;;18.00;9.50;;;;;;;17.59;100.00;97510.38;5016182;28;20025;-81
2021/06/29 03:46:20;;;;;;;17.92;8.77;;;;;;;17.64;100.00;97516.22;5016103;28;20124;-82
2021/06/29 03:48:46;;;;;;;15.90;10.68;;;;;;;17.71;100.00;97525.50;5033050;28;20102;-81
2021/06/29 03:51:12;;;;;;;21.10;9.82;;;;;;;17.75;100.00;97514.22;5016565;28;20026;-81
2021/06/29 03:53:37;;;;;;;16.35;9.57;;;;;;;17.84;100.00;97526.91;5032930;28;20025;-81
2021/06/29 03:56:03;;;;;;;17.60;10.25;;;;;;;17.93;100.00;97527.94;5016582;28;20501;-80
2021/06/29 03:58:29;;;;;;;18.75;9.85;;;;;;;18.01;100.00;97522.69;5015992;28;20025;-79
2021/06/29 04:00:55;;;;;;;22.58;9.30;;;;;;;18.11;100.00;97519.97;5016231;28;20037;-80
2021/06/29 04:03:20;;;;;;;39.97;17.63;;;;;;;18.22;100.00;97517.97;5016277;28;20025;-80
2021/06/29 04:05:46;;;;;;;19.20;8.88;;;;;;;18.36;100.00;97532.94;5016937;28;20108;-80
2021/06/29 04:08:11;;;;;;;15.40;9.10;;;;;;;18.41;100.00;97525.22;5016057;28;20092;-79
2021/06/29 04:10:37;;;;;;;27.13;10.32;;;;;;;18.54;100.00;97522.25;5015902;28;20508;-78
2021/06/29 04:13:03;;;;;;;15.15;8.95;;;;;;;18.60;100.00;97519.81;5015631;28;20029;-77
2021/06/29 04:15:28;;;;;;;21.83;9.20;;;;;;;18.66;100.00;97521.97;5032210;28;20381;-78
2021/06/29 04:17:54;;;;;;;21.27;9.38;;;;;;;18.78;100.00;97530.78;5015855;28;20463;-78
2021/06/29 04:20:20;;;;;;;21.35;9.90;;;;;;;18.84;100.00;97517.50;5015846;28;20112;-77
2021/06/29 04:22:45;;;;;;;19.27;8.77;;;;;;;18.92;100.00;97524.88;5015675;28;20030;-77
2021/06/29 04:25:12;;;;;;;20.10;9.25;;;;;;;19.03;100.00;97521.13;5015495;28;20037;-78
2021/06/29 04:27:37;;;;;;;16.38;9.40;;;;;;;19.16;100.00;97524.38;5015508;28;20037;-77
2021/06/29 04:30:07;;;;;;;19.33;9.60;;;;;;;19.24;100.00;97533.47;5015527;28;20029;-78
2021/06/29 04:32:32;;;;;;;19.70;10.32;;;;;;;19.35;100.00;97527.84;5015517;28;20025;-79
2021/06/29 04:34:58;;;;;;;35.45;9.02;;;;;;;19.42;100.00;97528.13;5032003;28;20029;-78
2021/06/29 04:37:24;;;;;;;27.05;9.90;;;;;;;19.47;100.00;97526.69;5015621;28;20037;-78
2021/06/29 04:39:49;;;;;;;24.73;9.35;;;;;;;19.64;100.00;97533.16;5014995;28;20164;-78
2021/06/29 04:42:15;;;;;;;14.65;9.18;;;;;;;19.78;99.67;97523.69;5031500;28;20034;-78
2021/06/29 04:44:41;;;;;;;25.50;10.27;;;;;;;19.82;99.81;97531.34;5032021;28;20515;-78
2021/06/29 04:47:08;;;;;;;24.50;9.50;;;;;;;19.99;99.92;97521.53;5015011;28;20056;-78
2021/06/29 04:49:34;;;;;;;21.75;9.48;;;;;;;20.12;99.29;97529.28;5015096;28;20112;-78
2021/06/29 04:51:59;;;;;;;28.55;9.90;;;;;;;20.51;96.88;97528.00;5015219;28;20032;-78
2021/06/29 04:54:25;;;;;;;26.52;9.55;;;;;;;22.37;84.65;97535.22;5014951;28;20030;-78
2021/06/29 04:56:51;;;;;;;27.17;15.00;;;;;;;23.12;78.44;97533.19;5015359;28;20033;-78
2021/06/29 04:59:16;;;;;;;42.22;19.10;;;;;;;24.17;72.45;97541.91;5031538;28;20386;-78
2021/06/29 05:01:43;;;;;;;34.65;10.27;;;;;;;26.26;64.81;97537.28;5014708;28;20052;-78
2021/06/29 05:04:08;;;;;;;82.22;49.45;;;;;;;28.32;55.74;97540.41;5031282;28;20083;-79
2021/06/29 05:06:34;;;;;;;17.35;9.20;;;;;;;29.15;51.91;97550.97;5031270;28;20380;-79
2021/06/29 05:09:00;;;;;;;26.40;9.45;;;;;;;30.53;48.28;97551.53;5031119;28;20038;-79
2021/06/29 05:11:25;;;;;;;12.90;8.98;;;;;;;31.01;46.06;97559.38;5014993;28;20112;-79
2021/06/29 05:13:51;;;;;;;19.55;8.77;;;;;;;32.21;43.60;97556.97;5014780;28;20039;-79
2021/06/29 05:16:16;;;;;;;24.48;7.97;;;;;;;33.13;41.31;97571.53;5014628;28;20064;-79
2021/06/29 05:18:42;;;;;;;26.60;8.50;;;;;;;33.97;39.50;97559.19;5015310;28;20431;-79
2021/06/29 05:21:08;;;;;;;18.73;8.85;;;;;;;34.48;38.60;97563.97;5014219;28;20045;-79
2021/06/29 05:23:33;;;;;;;36.55;9.70;;;;;;;35.36;37.08;97572.69;5014389;28;20029;-79
2021/06/29 05:25:59;;;;;;;33.80;10.30;;;;;;;35.52;36.44;97571.84;5014933;28;20091;-80
2021/06/29 05:28:25;;;;;;;34.45;9.57;;;;;;;35.94;35.55;97571.41;5030588;28;20039;-79
2021/06/29 05:30:51;;;;;;;29.67;8.95;;;;;;;34.65;36.79;97565.75;5014415;28;20500;-79
2021/06/29 05:33:17;;;;;;;38.15;10.60;;;;;;;35.62;35.59;97571.22;5014210;28;20450;-79
2021/06/29 05:35:42;;;;;;;21.45;8.38;;;;;;;35.21;35.67;97556.56;5014412;28;20032;-79
2021/06/29 05:38:08;;;;;;;16.00;8.02;;;;;;;35.12;36.23;97566.44;5014038;28;20345;-80
2021/06/29 05:40:35;;;;;;;23.25;8.77;;;;;;;34.65;37.02;97565.75;5030826;28;20197;-79
2021/06/29 05:43:03;;;;;;;26.65;7.57;;;;;;;36.02;35.07;97566.28;5014352;28;20034;-79
2021/06/29 05:45:29;;;;;;;24.77;9.35;;;;;;;36.00;34.54;97562.88;5006726;28;20053;-79
2021/06/29 05:47:55;;;;;;;82.57;44.95;;;;;;;35.32;35.53;97571.50;5014168;28;20060;-79
2021/06/29 05:50:22;;;;;;;25.45;11.93;;;;;;;35.44;35.38;97568.66;5014096;28;20030;-78
2021/06/29 05:52:48;;;;;;;23.73;8.55;;;;;;;35.66;34.60;97564.03;5030524;28;20021;-78
2021/06/29 05:55:14;;;;;;;14.02;7.22;;;;;;;35.87;34.62;97574.41;5013930;28;20117;-78
2021/06/29 05:57:39;;;;;;;16.90;7.43;;;;;;;35.66;34.95;97572.38;5014257;28;20053;-79
2021/06/29 06:00:13;;;;;;;15.15;7.82;;;;;;;34.92;36.38;97573.53;5014270;28;20110;-79
2021/06/29 06:02:39;;;;;;;12.55;8.07;;;;;;;35.02;35.81;97570.91;5030208;28;20382;-78
2021/06/29 06:05:06;;;;;;;22.33;8.68;;;;;;;35.59;35.70;97582.84;5014037;28;20029;-78
2021/06/29 06:07:32;;;;;;;9.93;7.22;;;;;;;36.41;33.69;97569.91;5030001;28;20026;-78
2021/06/29 06:09:57;;;;;;;14.82;6.95;;;;;;;37.07;32.88;97576.34;5013702;28;20071;-78
2021/06/29 06:12:23;;;;;;;11.88;7.03;;;;;;;37.23;32.47;97572.56;5013345;28;20025;-78
2021/06/29 06:14:48;;;;;;;18.92;7.07;;;;;;;37.71;31.54;97558.53;5013503;28;20563;-78
2021/06/29 06:17:14;;;;;;;11.05;6.82;;;;;;;38.74;29.66;97556.91;5013147;28;20109;-78
2021/06/29 06:19:40;;;;;;;19.35;10.98;;;;;;;38.86;29.90;97567.91;5013281;28;20044;-78
2021/06/29 06:22:05;;;;;;;24.58;6.85;;;;;;;39.44;29.20;97566.66;5013153;28;20087;-78
2021/06/29 06:24:31;;;;;;;15.25;7.15;;;;;;;39.45;29.17;97559.94;5013139;28;20079;-78
2021/06/29 06:26:57;;;;;;;14.07;7.72;;;;;;;37.00;31.78;97548.66;5029766;28;20678;-78
2021/06/29 06:29:22;;;;;;;16.25;6.60;;;;;;;38.78;30.12;97548.81;5013131;28;20107;-78
2021/06/29 06:31:48;;;;;;;11.38;6.53;;;;;;;39.51;28.78;97539.19;5013228;28;20033;-78
2021/06/29 06:34:13;;;;;;;11.40;6.15;;;;;;;40.04;28.49;97547.03;5013324;28;20029;-78
2021/06/29 06:36:40;;;;;;;13.50;5.65;;;;;;;40.71;27.36;97554.16;5012939;28;20037;-78
2021/06/29 06:39:05;;;;;;;17.10;6.25;;;;;;;40.08;27.97;97556.56;5029967;28;20029;-78
2021/06/29 06:41:34;;;;;;;18.00;5.55;;;;;;;40.51;27.70;97554.22;5012800;28;20045;-78
2021/06/29 06:43:59;;;;;;;13.48;6.43;;;;;;;40.04;28.09;97561.06;5013304;28;20029;-78
2021/06/29 06:46:26;;;;;;;12.85;6.43;;;;;;;40.61;27.49;97548.59;5012860;28;20567;-78
2021/06/29 06:48:51;;;;;;;22.65;7.03;;;;;;;41.43;26.71;97550.69;5029744;28;20029;-79
2021/06/29 06:51:17;;;;;;;24.10;5.88;;;;;;;40.57;27.58;97547.50;5012871;28;20036;-79
2021/06/29 06:53:43;;;;;;;14.15;6.05;;;;;;;40.36;27.92;97555.09;5013026;28;20021;-79
2021/06/29 06:56:14;;;;;;;17.48;6.32;;;;;;;40.08;28.79;97553.75;5029675;28;20029;-79
2021/06/29 06:58:40;;;;;;;10.30;5.50;;;;;;;40.39;28.22;97546.13;5029693;28;20028;-79
2021/06/29 07:01:06;;;;;;;8.40;5.50;;;;;;;40.56;27.59;97543.00;5029674;28;20083;-78
2021/06/29 07:03:31;;;;;;;14.57;5.82;;;;;;;39.70;28.91;97536.69;5033449;28;20033;-79
2021/06/29 07:05:57;;;;;;;19.50;6.13;;;;;;;40.52;27.48;97545.53;5017050;28;20108;-78
2021/06/29 07:08:22;;;;;;;24.13;6.05;;;;;;;40.38;28.00;97535.19;5016715;28;20030;-78
2021/06/29 07:10:48;;;;;;;12.52;5.75;;;;;;;41.59;26.67;97545.78;5017148;28;20503;-78
2021/06/29 07:13:14;;;;;;;19.40;5.63;;;;;;;41.49;26.86;97532.66;5017114;28;20021;-78
2021/06/29 07:15:40;;;;;;;11.55;5.57;;;;;;;40.94;26.80;97531.06;5016785;28;20468;-78
2021/06/29 07:18:05;;;;;;;16.13;5.93;;;;;;;40.69;27.11;97525.56;5016914;28;20032;-78
2021/06/29 07:20:31;;;;;;;8.77;5.75;;;;;;;39.76;27.41;97532.78;5016577;28;20095;-78
2021/06/29 07:22:57;;;;;;;12.90;5.65;;;;;;;40.80;26.50;97524.34;5017062;28;20033;-78
2021/06/29 07:25:22;;;;;;;9.13;5.32;;;;;;;40.76;27.32;97533.66;5016649;28;20029;-79
2021/06/29 07:27:48;;;;;;;12.55;6.18;;;;;;;41.81;26.79;97529.28;5016670;28;20029;-78
2021/06/29 07:30:14;;;;;;;10.48;5.63;;;;;;;41.74;26.28;97527.94;5017005;28;20033;-78
2021/06/29 07:32:42;;;;;;;12.05;6.13;;;;;;;42.07;26.72;97527.91;5016604;28;20034;-78
2021/06/29 07:35:12;;;;;;;11.85;4.93;;;;;;;41.53;26.14;97524.50;5033138;28;20095;-77
2021/06/29 07:37:37;;;;;;;9.02;5.25;;;;;;;40.99;26.81;97524.56;5016403;28;20121;-79
2021/06/29 07:40:04;;;;;;;22.52;5.80;;;;;;;41.36;26.33;97526.84;5032963;28;20105;-78
2021/06/29 07:42:30;;;;;;;9.32;5.00;;;;;;;42.34;24.85;97512.44;5016091;28;20030;-79
2021/06/29 07:44:55;;;;;;;9.60;5.38;;;;;;;42.63;25.08;97524.50;5016431;28;20405;-78
2021/06/29 07:47:21;;;;;;;8.65;5.20;;;;;;;43.49;23.97;97521.31;5033040;28;20033;-78
2021/06/29 07:49:46;;;;;;;7.50;4.78;;;;;;;42.57;24.48;97520.06;5032738;28;20025;-78
2021/06/29 07:52:12;;;;;;;17.48;7.03;;;;;;;43.74;23.66;97517.22;5032852;28;20028;-78
2021/06/29 07:54:37;;;;;;;23.05;8.10;;;;;;;43.74;24.62;97522.84;5032647;28;20095;-78
2021/06/29 07:57:03;;;;;;;14.15;5.50;;;;;;;44.06;23.80;97517.19;5016362;28;20056;-78
2021/06/29 07:59:28;;;;;;;10.82;4.88;;;;;;;44.44;23.24;97514.22;5032785;28;20513;-78
2021/06/29 08:01:54;;;;;;;16.45;5.55;;;;;;;44.68;23.10;97510.06;5032675;28;20102;-78
2021/06/29 08:04:20;;;;;;;11.32;4.90;;;;;;;45.25;22.03;97508.50;5016128;28;20061;-78
2021/06/29 08:06:45;;;;;;;7.47;5.10;;;;;;;45.62;21.51;97514.97;5015953;28;20619;-78
2021/06/29 08:09:11;;;;;;;11.55;7.93;;;;;;;46.69;21.66;97513.75;5016274;28;20503;-79
2021/06/29 08:11:37;;;;;;;12.38;5.53;;;;;;;46.48;21.55;97509.88;5032348;28;20062;-78
2021/06/29 08:14:02;;;;;;;11.00;6.00;;;;;;;45.17;21.55;97495.13;5032229;28;20033;-79
2021/06/29 08:16:28;;;;;;;7.72;5.20;;;;;;;46.47;20.79;97496.84;5032327;28;20040;-78
2021/06/29 08:18:54;;;;;;;10.90;5.78;;;;;;;46.99;20.84;97498.69;5015632;28;20103;-78
2021/06/29 08:21:19;;;;;;;10.63;6.03;;;;;;;44.79;22.42;97482.44;5015714;28;20116;-78
2021/06/29 08:23:45;;;;;;;11.38;7.03;;;;;;;42.89;24.00;97496.81;5015351;28;20485;-78
2021/06/29 08:26:10;;;;;;;13.13;10.00;;;;;;;43.39;24.06;97495.25;5032617;28;20029;-78
2021/06/29 08:28:36;;;;;;;7.97;6.72;;;;;;;44.41;23.24;97495.09;5015491;28;20087;-78
2021/06/29 08:31:04;;;;;;;7.30;5.57;;;;;;;44.52;22.60;97482.44;5032121;28;20032;-78
2021/06/29 08:33:29;;;;;;;7.32;5.80;;;;;;;43.90;23.29;97484.78;5015369;28;20021;-79
2021/06/29 08:35:56;;;;;;;8.55;7.20;;;;;;;43.41;23.81;97484.53;5015371;28;20079;-78
2021/06/29 08:38:22;;;;;;;12.05;6.13;;;;;;;43.69;24.14;97481.47;5032271;28;20052;-78
2021/06/29 08:40:49;;;;;;;12.82;6.95;;;;;;;45.17;22.66;97488.63;5015271;28;20180;-78
2021/06/29 08:43:15;;;;;;;8.30;6.47;;;;;;;46.05;22.00;97487.84;5032201;28;20489;-78
2021/06/29 08:45:41;;;;;;;11.30;7.35;;;;;;;44.24;22.65;97476.78;5031706;28;20041;-78
2021/06/29 08:48:07;;;;;;;11.55;7.03;;;;;;;44.98;23.12;97483.13;5015340;28;20437;-78
2021/06/29 08:50:34;;;;;;;9.73;6.88;;;;;;;44.11;22.97;97468.31;5032179;28;20026;-78
2021/06/29 08:53:05;;;;;;;8.77;7.28;;;;;;;45.04;22.57;97466.94;5015274;28;20052;-78
2021/06/29 08:55:36;;;;;;;7.85;6.80;;;;;;;45.72;22.46;97473.13;5015137;28;20032;-78
2021/06/29 08:58:01;;;;;;;;;;;;;;;45.78;21.26;97459.69;5032002;28;20128;-76
2021/06/29 09:00:27;;;;;;;8.40;6.60;;;;;;;45.71;21.62;97457.34;5031588;28;20000;-77
2021/06/29 09:02:52;;;;;;;8.32;6.20;;;;;;;46.43;20.82;97453.34;5031224;28;20030;-78
2021/06/29 09:05:22;;;;;;;6.72;6.00;;;;;;;46.42;21.16;97449.72;5014933;28;20037;-78
2021/06/29 09:08:07;;;;;;;16.27;7.63;;;;;;;45.89;21.85;97448.94;5032638;28;20072;-78
2021/06/29 09:10:34;;;;;;;9.40;6.60;;;;;;;45.38;21.50;97441.75;5014996;28;20037;-77
2021/06/29 09:13:01;;;;;;;9.00;6.47;;;;;;;46.14;21.37;97442.59;5014723;28;20260;-77
2021/06/29 09:15:46;;;;;;;8.35;6.07;;;;;;;44.83;23.31;97445.91;5031487;28;20021;-77
2021/06/29 09:18:13;;;;;;;6.50;5.80;;;;;;;45.66;22.77;97453.75;5014757;28;20116;-77
2021/06/29 09:20:41;;;;;;;12.40;6.10;;;;;;;46.75;19.79;97427.44;5014460;28;20033;-78
2021/06/29 09:23:28;;;;;;;8.93;5.97;;;;;;;46.43;20.08;97436.38;5031164;28;20022;-77
2021/06/29 09:25:55;;;;;;;6.68;6.07;;;;;;;46.98;18.96;97431.81;5014005;28;20045;-77
2021/06/29 09:28:24;;;;;;;7.43;5.70;;;;;;;46.97;19.84;97435.00;5031453;28;20100;-78
2021/06/29 09:31:01;;;;;;;11.02;6.03;;;;;;;46.37;20.16;97426.31;5014352;28;20040;-77
2021/06/29 09:33:32;;;;;;;6.75;6.07;;;;;;;46.18;20.68;97412.44;5031026;28;20120;-78
2021/06/29 09:36:01;;;;;;;8.02;6.70;;;;;;;47.56;19.47;97430.50;5014585;28;20041;-79
2021/06/29 09:38:29;;;;;;;8.85;6.75;;;;;;;48.01;18.25;97419.53;5030908;28;20029;-79
2021/06/29 09:41:00;;;;;;;10.25;6.00;;;;;;;47.98;18.07;97406.88;5014068;28;20512;-77
2021/06/29 09:43:28;;;;;;;10.18;6.05;;;;;;;47.65;19.59;97417.97;5014417;28;20349;-77
2021/06/29 09:45:56;;;;;;;9.65;5.95;;;;;;;48.29;19.02;97418.78;5013808;28;20057;-79
2021/06/29 09:48:40;;;;;;;6.47;5.88;;;;;;;48.34;19.41;97415.72;5014296;28;20428;-78
2021/06/29 09:51:12;;;;;;;12.23;6.50;;;;;;;48.03;18.02;97400.16;5013917;28;20037;-78
2021/06/29 09:53:44;;;;;;;9.48;6.88;;;;;;;47.79;19.23;97400.72;5014224;28;20025;-78
2021/06/29 09:56:15;;;;;;;16.00;6.57;;;;;;;47.33;19.17;97398.66;5030596;28;20499;-78
2021/06/29 09:58:41;;;;;;;;;;;;;;;48.39;18.44;97406.19;5014344;28;20029;-78
2021/06/29 10:01:07;;;;;;;6.60;6.00;;;;;;;47.98;17.89;97401.19;5013899;28;19966;-78
2021/06/29 10:03:38;;;;;;;6.68;5.97;;;;;;;47.96;18.33;97397.88;5014164;28;20021;-78
2021/06/29 10:06:18;;;;;;;7.55;6.60;;;;;;;46.55;19.40;97382.78;5030549;28;20163;-79
2021/06/29 10:08:49;;;;;;;8.18;6.05;;;;;;;47.72;17.91;97389.06;5030572;28;20075;-79
2021/06/29 10:11:18;;;;;;;9.60;7.78;;;;;;;47.91;18.86;97392.34;5013776;28;20025;-78
2021/06/29 10:13:52;;;;;;;11.85;6.75;;;;;;;47.65;18.92;97389.59;5013957;28;20053;-79
2021/06/29 10:16:23;;;;;;;9.23;7.13;;;;;;;48.04;18.94;97393.31;5013906;28;20029;-78
2021/06/29 10:19:02;;;;;;;7.50;6.70;;;;;;;48.89;17.17;97383.44;5013935;28;20041;-79
2021/06/29 10:21:30;;;;;;;8.48;6.80;;;;;;;47.93;18.45;97375.84;5014785;28;20033;-79
2021/06/29 10:24:03;;;;;;;7.30;6.20;;;;;;;48.77;17.29;97377.69;5029880;28;20092;-79
2021/06/29 10:26:31;;;;;;;10.50;7.00;;;;;;;47.12;19.27;97369.28;5013675;28;20048;-78
2021/06/29 10:28:57;;;;;;;12.95;9.98;;;;;;;48.05;19.20;97370.28;5013326;28;20111;-79
2021/06/29 10:31:28;;;;;;;7.15;6.32;;;;;;;47.51;18.86;97354.09;5013670;28;20029;-78
2021/06/29 10:33:56;;;;;;;9.35;6.22;;;;;;;48.22;19.06;97370.19;5013360;28;20029;-79
2021/06/29 10:36:23;;;;;;;9.45;6.57;;;;;;;48.70;19.25;97366.06;5029348;28;20091;-80
2021/06/29 10:38:50;;;;;;;10.07;7.22;;;;;;;48.23;17.73;97366.19;5030061;28;20056;-79
2021/06/29 10:41:17;;;;;;;10.15;7.90;;;;;;;45.87;19.86;97346.59;5013499;28;20025;-78
2021/06/29 10:43:43;;;;;;;13.50;7.47;;;;;;;47.58;19.43;97360.06;5013438;28;20061;-79
2021/06/29 10:46:35;;;;;;;10.75;7.45;;;;;;;47.10;20.46;97349.78;5013063;28;20118;-80
2021/06/29 10:49:26;;;;;;;7.90;6.55;;;;;;;48.65;17.84;97354.88;5029661;28;20436;-80
2021/06/29 10:51:52;;;;;;;7.43;6.50;;;;;;;46.86;19.00;97346.63;5003772;28;20501;-79
2021/06/29 10:54:48;;;;;;;7.55;6.78;;;;;;;46.38;19.22;97315.59;5013301;28;20029;-78
2021/06/29 10:57:43;;;;;;;7.10;6.40;;;;;;;47.62;18.37;97338.38;5006383;28;20560;-78
2021/06/29 11:00:21;;;;;;;9.73;7.03;;;;;;;49.00;17.66;97339.25;5004572;28;20041;-78
2021/06/29 11:02:56;;;;;;;8.48;6.80;;;;;;;49.54;17.93;97333.50;5029791;28;20472;-78
2021/06/29 11:05:25;;;;;;;8.63;6.82;;;;;;;50.39;17.85;97328.75;5031031;28;20104;-78
2021/06/29 11:07:50;;;;;;;9.63;7.25;;;;;;;48.48;18.25;97326.59;5013233;28;20083;-78
2021/06/29 11:10:27;;;;;;;8.18;6.80;;;;;;;48.79;18.79;97324.19;5012860;28;20437;-78
2021/06/29 11:12:56;;;;;;;11.25;7.00;;;;;;;49.64;18.26;97314.00;5013539;28;20064;-78
2021/06/29 11:15:49;;;;;;;8.48;7.07;;;;;;;49.96;18.48;97308.56;5030074;28;20029;-78
2021/06/29 11:18:16;;;;;;;8.80;7.05;;;;;;;49.03;17.21;97317.81;5021252;28;20056;-78
2021/06/29 11:20:46;;;;;;;16.98;8.73;;;;;;;48.08;18.94;97306.28;5013113;28;20037;-78
2021/06/29 11:23:26;;;;;;;11.00;7.68;;;;;;;46.61;19.99;97314.28;5029506;28;20048;-78
2021/06/29 11:25:56;;;;;;;12.65;7.10;;;;;;;47.73;18.61;97309.28;5029741;28;20069;-78
2021/06/29 11:28:32;;;;;;;12.45;6.88;;;;;;;48.12;18.11;97305.25;5013127;28;20028;-78
2021/06/29 11:31:10;;;;;;;11.07;6.80;;;;;;;48.61;17.98;97308.47;5029674;28;20026;-79
2021/06/29 11:33:43;;;;;;;9.27;7.25;;;;;;;48.13;19.93;97304.06;5029695;28;20414;-78
2021/06/29 11:36:26;;;;;;;12.45;7.22;;;;;;;47.00;19.94;97307.63;5029441;28;20120;-78
2021/06/29 11:39:01;;;;;;;8.10;7.30;;;;;;;47.29;19.10;97306.91;5030535;28;20068;-78
2021/06/29 11:41:37;;;;;;;13.98;7.75;;;;;;;47.58;18.91;97301.34;5029631;28;20025;-78
2021/06/29 11:44:09;;;;;;;9.07;7.00;;;;;;;46.84;19.30;97300.81;5029415;28;20121;-78
2021/06/29 11:46:55;;;;;;;12.77;7.55;;;;;;;46.29;20.97;97298.59;5029167;28;20051;-78
2021/06/29 11:49:33;;;;;;;10.27;9.18;;;;;;;44.92;21.76;97291.50;5016363;28;20568;-77
2021/06/29 11:52:01;;;;;;;16.23;9.40;;;;;;;43.59;22.87;97298.41;5032740;28;20025;-77
2021/06/29 11:54:28;;;;;;;11.48;8.27;;;;;;;43.42;22.61;97286.09;5016488;28;20488;-78
2021/06/29 11:56:56;;;;;;;8.93;8.07;;;;;;;43.80;23.78;97303.66;5016638;28;20130;-78